sensor_id;sensor_type;location;lat;lon;timestamp;P1;durP1;ratioP1;P2;durP2;ratioP2
63346;SDS011;49472;49.880;8.650;2022-09-09T00:03:48;11.83;;;10.83;;
63346;SDS011;49472;49.880;8.650;2022-09-09T00:06:23;12.27;;;11.33;;
63346;SDS011;49472;49.880;8.650;2022-09-09T00:11:27;12.67;;;11.63;;
63346;SDS011;49472;49.880;8.650;2022-09-09T00:13:53;13.93;;;11.63;;
63346;SDS011;49472;49.880;8.650;2022-09-09T00:16:25;12.13;;;11.03;;
63346;SDS011;49472;49.880;8.650;2022-09-09T00:18:55;12.40;;;11.37;;
63346;SDS011;49472;49.880;8.650;2022-09-09T00:21:24;12.30;;;11.20;;
63346;SDS011;49472;49.880;8.650;2022-09-09T00:23:52;12.20;;;11.33;;
63346;SDS011;49472;49.880;8.650;2022-09-09T00:31:45;12.27;;;11.17;;
63346;SDS011;49472;49.880;8.650;2022-09-09T00:36:37;11.90;;;11.10;;
63346;SDS011;49472;49.880;8.650;2022-09-09T00:39:03;12.10;;;11.10;;
63346;SDS011;49472;49.880;8.650;2022-09-09T00:42:15;11.87;;;10.83;;
63346;SDS011;49472;49.880;8.650;2022-09-09T00:44:33;14.93;;;11.27;;
63346;SDS011;49472;49.880;8.650;2022-09-09T00:47:25;12.27;;;11.13;;
63346;SDS011;49472;49.880;8.650;2022-09-09T00:49:49;12.53;;;11.70;;
63346;SDS011;49472;49.880;8.650;2022-09-09T00:54:48;12.47;;;11.47;;
63346;SDS011;49472;49.880;8.650;2022-09-09T00:57:37;12.47;;;11.47;;
63346;SDS011;49472;49.880;8.650;2022-09-09T01:00:19;11.80;;;10.90;;
63346;SDS011;49472;49.880;8.650;2022-09-09T01:05:19;12.33;;;11.27;;
63346;SDS011;49472;49.880;8.650;2022-09-09T01:07:46;12.00;;;11.20;;
63346;SDS011;49472;49.880;8.650;2022-09-09T01:10:26;12.80;;;11.80;;
63346;SDS011;49472;49.880;8.650;2022-09-09T01:12:54;11.60;;;10.93;;
63346;SDS011;49472;49.880;8.650;2022-09-09T01:15:22;14.27;;;11.40;;
63346;SDS011;49472;49.880;8.650;2022-09-09T01:18:08;12.73;;;11.70;;
63346;SDS011;49472;49.880;8.650;2022-09-09T01:20:47;17.87;;;11.80;;
63346;SDS011;49472;49.880;8.650;2022-09-09T01:23:22;13.40;;;12.20;;
63346;SDS011;49472;49.880;8.650;2022-09-09T01:28:36;13.40;;;11.93;;
63346;SDS011;49472;49.880;8.650;2022-09-09T01:31:02;11.87;;;10.90;;
63346;SDS011;49472;49.880;8.650;2022-09-09T01:33:28;12.67;;;11.83;;
63346;SDS011;49472;49.880;8.650;2022-09-09T01:36:13;12.57;;;11.53;;
63346;SDS011;49472;49.880;8.650;2022-09-09T01:38:42;12.33;;;11.43;;
63346;SDS011;49472;49.880;8.650;2022-09-09T01:41:07;12.67;;;11.43;;
63346;SDS011;49472;49.880;8.650;2022-09-09T01:43:32;13.00;;;11.87;;
63346;SDS011;49472;49.880;8.650;2022-09-09T01:45:59;12.97;;;11.97;;
63346;SDS011;49472;49.880;8.650;2022-09-09T01:48:24;13.00;;;11.80;;
63346;SDS011;49472;49.880;8.650;2022-09-09T01:50:50;12.30;;;11.50;;
63346;SDS011;49472;49.880;8.650;2022-09-09T01:53:15;12.20;;;11.40;;
63346;SDS011;49472;49.880;8.650;2022-09-09T01:55:42;14.07;;;12.63;;
63346;SDS011;49472;49.880;8.650;2022-09-09T02:00:42;12.40;;;11.50;;
63346;SDS011;49472;49.880;8.650;2022-09-09T02:03:09;12.43;;;11.73;;
63346;SDS011;49472;49.880;8.650;2022-09-09T02:05:36;18.10;;;11.87;;
63346;SDS011;49472;49.880;8.650;2022-09-09T02:08:09;13.97;;;12.07;;
63346;SDS011;49472;49.880;8.650;2022-09-09T02:13:08;12.40;;;11.60;;
63346;SDS011;49472;49.880;8.650;2022-09-09T02:17:59;12.63;;;11.40;;
63346;SDS011;49472;49.880;8.650;2022-09-09T02:20:26;13.00;;;11.80;;
63346;SDS011;49472;49.880;8.650;2022-09-09T02:22:53;12.77;;;11.77;;
63346;SDS011;49472;49.880;8.650;2022-09-09T02:25:21;12.63;;;11.83;;
63346;SDS011;49472;49.880;8.650;2022-09-09T02:27:47;12.53;;;11.43;;
63346;SDS011;49472;49.880;8.650;2022-09-09T02:30:14;13.03;;;11.80;;
63346;SDS011;49472;49.880;8.650;2022-09-09T02:32:40;15.73;;;12.40;;
63346;SDS011;49472;49.880;8.650;2022-09-09T02:35:08;12.30;;;11.33;;
63346;SDS011;49472;49.880;8.650;2022-09-09T02:37:38;11.10;;;10.27;;
63346;SDS011;49472;49.880;8.650;2022-09-09T02:40:03;13.40;;;12.10;;
63346;SDS011;49472;49.880;8.650;2022-09-09T02:42:29;12.63;;;11.60;;
63346;SDS011;49472;49.880;8.650;2022-09-09T02:44:54;13.33;;;11.97;;
63346;SDS011;49472;49.880;8.650;2022-09-09T02:50:03;12.50;;;11.70;;
63346;SDS011;49472;49.880;8.650;2022-09-09T02:55:19;12.87;;;11.30;;
63346;SDS011;49472;49.880;8.650;2022-09-09T02:57:46;12.30;;;11.40;;
63346;SDS011;49472;49.880;8.650;2022-09-09T03:00:12;13.10;;;12.03;;
63346;SDS011;49472;49.880;8.650;2022-09-09T03:02:37;12.10;;;11.20;;
63346;SDS011;49472;49.880;8.650;2022-09-09T03:05:03;13.87;;;11.67;;
63346;SDS011;49472;49.880;8.650;2022-09-09T03:07:30;12.90;;;11.60;;
63346;SDS011;49472;49.880;8.650;2022-09-09T03:09:55;13.93;;;12.43;;
63346;SDS011;49472;49.880;8.650;2022-09-09T03:12:20;12.67;;;11.67;;
63346;SDS011;49472;49.880;8.650;2022-09-09T03:14:45;14.53;;;12.40;;
63346;SDS011;49472;49.880;8.650;2022-09-09T03:17:11;12.50;;;11.43;;
63346;SDS011;49472;49.880;8.650;2022-09-09T03:19:36;13.30;;;12.27;;
63346;SDS011;49472;49.880;8.650;2022-09-09T03:22:02;11.93;;;10.70;;
63346;SDS011;49472;49.880;8.650;2022-09-09T03:24:29;14.30;;;12.37;;
63346;SDS011;49472;49.880;8.650;2022-09-09T03:26:54;12.50;;;11.43;;
63346;SDS011;49472;49.880;8.650;2022-09-09T03:29:20;13.43;;;12.20;;
63346;SDS011;49472;49.880;8.650;2022-09-09T03:31:46;12.10;;;11.30;;
63346;SDS011;49472;49.880;8.650;2022-09-09T03:34:11;13.93;;;11.60;;
63346;SDS011;49472;49.880;8.650;2022-09-09T03:36:38;16.00;;;10.90;;
63346;SDS011;49472;49.880;8.650;2022-09-09T03:39:03;12.73;;;11.63;;
63346;SDS011;49472;49.880;8.650;2022-09-09T03:41:29;13.17;;;11.83;;
63346;SDS011;49472;49.880;8.650;2022-09-09T03:43:55;14.37;;;12.00;;
63346;SDS011;49472;49.880;8.650;2022-09-09T03:46:21;12.27;;;11.47;;
63346;SDS011;49472;49.880;8.650;2022-09-09T03:48:46;14.00;;;12.57;;
63346;SDS011;49472;49.880;8.650;2022-09-09T03:51:12;13.97;;;12.27;;
63346;SDS011;49472;49.880;8.650;2022-09-09T03:53:37;12.50;;;11.40;;
63346;SDS011;49472;49.880;8.650;2022-09-09T03:56:03;12.43;;;11.23;;
63346;SDS011;49472;49.880;8.650;2022-09-09T03:58:29;12.07;;;11.17;;
63346;SDS011;49472;49.880;8.650;2022-09-09T04:00:58;12.83;;;11.53;;
63346;SDS011;49472;49.880;8.650;2022-09-09T04:03:24;12.90;;;11.67;;
63346;SDS011;49472;49.880;8.650;2022-09-09T04:05:50;17.07;;;11.10;;
63346;SDS011;49472;49.880;8.650;2022-09-09T04:08:16;12.73;;;11.70;;
63346;SDS011;49472;49.880;8.650;2022-09-09T04:10:41;13.60;;;11.50;;
63346;SDS011;49472;49.880;8.650;2022-09-09T04:13:06;10.87;;;10.10;;
63346;SDS011;49472;49.880;8.650;2022-09-09T04:15:32;12.00;;;11.10;;
63346;SDS011;49472;49.880;8.650;2022-09-09T04:18:00;12.27;;;11.47;;
63346;SDS011;49472;49.880;8.650;2022-09-09T04:20:25;10.50;;;9.70;;
63346;SDS011;49472;49.880;8.650;2022-09-09T04:22:50;11.37;;;10.57;;
63346;SDS011;49472;49.880;8.650;2022-09-09T04:25:16;11.33;;;10.40;;
63346;SDS011;49472;49.880;8.650;2022-09-09T04:27:41;11.83;;;10.70;;
63346;SDS011;49472;49.880;8.650;2022-09-09T04:30:08;11.13;;;10.30;;
63346;SDS011;49472;49.880;8.650;2022-09-09T04:32:33;10.20;;;9.50;;
63346;SDS011;49472;49.880;8.650;2022-09-09T04:34:59;11.10;;;10.30;;
63346;SDS011;49472;49.880;8.650;2022-09-09T04:37:24;10.93;;;10.03;;
63346;SDS011;49472;49.880;8.650;2022-09-09T04:39:49;14.00;;;11.07;;
63346;SDS011;49472;49.880;8.650;2022-09-09T04:42:15;12.17;;;11.00;;
63346;SDS011;49472;49.880;8.650;2022-09-09T04:44:41;11.83;;;10.70;;
63346;SDS011;49472;49.880;8.650;2022-09-09T04:47:06;11.77;;;10.73;;
63346;SDS011;49472;49.880;8.650;2022-09-09T04:49:31;10.93;;;10.20;;
63346;SDS011;49472;49.880;8.650;2022-09-09T04:51:57;11.40;;;10.57;;
63346;SDS011;49472;49.880;8.650;2022-09-09T04:54:22;11.40;;;10.40;;
63346;SDS011;49472;49.880;8.650;2022-09-09T04:56:47;12.87;;;10.93;;
63346;SDS011;49472;49.880;8.650;2022-09-09T04:59:12;11.53;;;10.37;;
63346;SDS011;49472;49.880;8.650;2022-09-09T05:01:37;14.10;;;11.93;;
63346;SDS011;49472;49.880;8.650;2022-09-09T05:04:03;11.00;;;10.30;;
63346;SDS011;49472;49.880;8.650;2022-09-09T05:06:28;12.97;;;10.40;;
63346;SDS011;49472;49.880;8.650;2022-09-09T05:08:56;12.07;;;10.60;;
63346;SDS011;49472;49.880;8.650;2022-09-09T05:11:23;11.83;;;10.60;;
63346;SDS011;49472;49.880;8.650;2022-09-09T05:13:49;10.70;;;9.77;;
63346;SDS011;49472;49.880;8.650;2022-09-09T05:16:15;11.27;;;10.27;;
63346;SDS011;49472;49.880;8.650;2022-09-09T05:18:40;10.97;;;10.07;;
63346;SDS011;49472;49.880;8.650;2022-09-09T05:21:07;11.43;;;10.30;;
63346;SDS011;49472;49.880;8.650;2022-09-09T05:23:33;11.67;;;10.60;;
63346;SDS011;49472;49.880;8.650;2022-09-09T05:25:59;10.47;;;9.77;;
63346;SDS011;49472;49.880;8.650;2022-09-09T05:28:24;10.57;;;9.67;;
63346;SDS011;49472;49.880;8.650;2022-09-09T05:31:03;11.00;;;10.20;;
63346;SDS011;49472;49.880;8.650;2022-09-09T05:33:29;11.30;;;10.40;;
63346;SDS011;49472;49.880;8.650;2022-09-09T05:36:05;10.50;;;9.80;;
63346;SDS011;49472;49.880;8.650;2022-09-09T05:38:31;10.53;;;9.93;;
63346;SDS011;49472;49.880;8.650;2022-09-09T05:40:57;11.27;;;10.23;;
63346;SDS011;49472;49.880;8.650;2022-09-09T05:43:23;11.03;;;10.30;;
63346;SDS011;49472;49.880;8.650;2022-09-09T05:45:58;11.97;;;10.60;;
63346;SDS011;49472;49.880;8.650;2022-09-09T05:48:27;10.77;;;10.03;;
63346;SDS011;49472;49.880;8.650;2022-09-09T05:50:52;10.97;;;10.17;;
63346;SDS011;49472;49.880;8.650;2022-09-09T05:53:18;10.67;;;9.87;;
63346;SDS011;49472;49.880;8.650;2022-09-09T05:55:43;10.97;;;10.10;;
63346;SDS011;49472;49.880;8.650;2022-09-09T05:58:10;10.80;;;9.80;;
63346;SDS011;49472;49.880;8.650;2022-09-09T06:00:36;12.17;;;10.90;;
63346;SDS011;49472;49.880;8.650;2022-09-09T06:03:02;11.37;;;10.20;;
63346;SDS011;49472;49.880;8.650;2022-09-09T06:05:28;11.00;;;10.30;;
63346;SDS011;49472;49.880;8.650;2022-09-09T06:07:54;10.03;;;9.37;;
63346;SDS011;49472;49.880;8.650;2022-09-09T06:10:20;10.43;;;9.57;;
63346;SDS011;49472;49.880;8.650;2022-09-09T06:12:45;10.87;;;9.97;;
63346;SDS011;49472;49.880;8.650;2022-09-09T06:15:10;10.50;;;9.47;;
63346;SDS011;49472;49.880;8.650;2022-09-09T06:17:35;10.00;;;9.10;;
63346;SDS011;49472;49.880;8.650;2022-09-09T06:20:01;11.20;;;10.50;;
63346;SDS011;49472;49.880;8.650;2022-09-09T06:22:26;15.33;;;10.60;;
63346;SDS011;49472;49.880;8.650;2022-09-09T06:24:51;10.17;;;9.57;;
63346;SDS011;49472;49.880;8.650;2022-09-09T06:27:18;12.90;;;10.17;;
63346;SDS011;49472;49.880;8.650;2022-09-09T06:29:43;11.37;;;10.57;;
63346;SDS011;49472;49.880;8.650;2022-09-09T06:32:08;10.70;;;9.73;;
63346;SDS011;49472;49.880;8.650;2022-09-09T06:34:34;10.27;;;9.33;;
63346;SDS011;49472;49.880;8.650;2022-09-09T06:37:00;10.40;;;9.60;;
63346;SDS011;49472;49.880;8.650;2022-09-09T06:39:25;10.07;;;9.37;;
63346;SDS011;49472;49.880;8.650;2022-09-09T06:41:51;10.83;;;9.77;;
63346;SDS011;49472;49.880;8.650;2022-09-09T06:44:18;10.83;;;10.03;;
63346;SDS011;49472;49.880;8.650;2022-09-09T06:46:43;12.83;;;10.50;;
63346;SDS011;49472;49.880;8.650;2022-09-09T06:49:11;10.30;;;9.60;;
63346;SDS011;49472;49.880;8.650;2022-09-09T06:51:36;12.63;;;10.40;;
63346;SDS011;49472;49.880;8.650;2022-09-09T06:54:07;10.40;;;9.80;;
63346;SDS011;49472;49.880;8.650;2022-09-09T06:56:33;13.77;;;11.30;;
63346;SDS011;49472;49.880;8.650;2022-09-09T06:58:59;11.40;;;10.50;;
63346;SDS011;49472;49.880;8.650;2022-09-09T07:01:28;13.70;;;10.63;;
63346;SDS011;49472;49.880;8.650;2022-09-09T07:03:55;10.83;;;10.03;;
63346;SDS011;49472;49.880;8.650;2022-09-09T07:06:42;11.70;;;10.53;;
63346;SDS011;49472;49.880;8.650;2022-09-09T07:09:08;14.23;;;10.90;;
63346;SDS011;49472;49.880;8.650;2022-09-09T07:11:37;10.30;;;9.60;;
63346;SDS011;49472;49.880;8.650;2022-09-09T07:14:03;11.20;;;10.07;;
63346;SDS011;49472;49.880;8.650;2022-09-09T07:16:28;11.40;;;10.40;;
63346;SDS011;49472;49.880;8.650;2022-09-09T07:18:54;11.90;;;10.10;;
63346;SDS011;49472;49.880;8.650;2022-09-09T07:21:23;13.80;;;10.40;;
63346;SDS011;49472;49.880;8.650;2022-09-09T07:23:49;10.57;;;9.67;;
63346;SDS011;49472;49.880;8.650;2022-09-09T07:26:16;11.97;;;10.70;;
63346;SDS011;49472;49.880;8.650;2022-09-09T07:28:41;12.97;;;10.93;;
63346;SDS011;49472;49.880;8.650;2022-09-09T07:31:08;20.70;;;10.63;;
63346;SDS011;49472;49.880;8.650;2022-09-09T07:33:38;11.60;;;10.80;;
63346;SDS011;49472;49.880;8.650;2022-09-09T07:36:08;10.97;;;10.27;;
63346;SDS011;49472;49.880;8.650;2022-09-09T07:38:41;15.40;;;10.57;;
63346;SDS011;49472;49.880;8.650;2022-09-09T07:41:09;16.20;;;11.03;;
63346;SDS011;49472;49.880;8.650;2022-09-09T07:43:37;12.10;;;11.00;;
63346;SDS011;49472;49.880;8.650;2022-09-09T07:46:02;11.90;;;10.90;;
63346;SDS011;49472;49.880;8.650;2022-09-09T07:48:28;11.33;;;10.50;;
63346;SDS011;49472;49.880;8.650;2022-09-09T07:51:02;13.23;;;10.83;;
63346;SDS011;49472;49.880;8.650;2022-09-09T07:53:27;12.60;;;11.30;;
63346;SDS011;49472;49.880;8.650;2022-09-09T07:55:53;12.80;;;11.47;;
63346;SDS011;49472;49.880;8.650;2022-09-09T07:58:20;12.20;;;10.70;;
63346;SDS011;49472;49.880;8.650;2022-09-09T08:00:45;15.30;;;11.10;;
63346;SDS011;49472;49.880;8.650;2022-09-09T08:03:10;12.23;;;10.23;;
63346;SDS011;49472;49.880;8.650;2022-09-09T08:05:35;19.03;;;12.23;;
63346;SDS011;49472;49.880;8.650;2022-09-09T08:08:01;11.23;;;10.27;;
63346;SDS011;49472;49.880;8.650;2022-09-09T08:10:28;16.63;;;10.70;;
63346;SDS011;49472;49.880;8.650;2022-09-09T08:12:53;12.10;;;10.80;;
63346;SDS011;49472;49.880;8.650;2022-09-09T08:15:20;14.83;;;11.10;;
63346;SDS011;49472;49.880;8.650;2022-09-09T08:17:45;11.97;;;10.60;;
63346;SDS011;49472;49.880;8.650;2022-09-09T08:20:10;12.30;;;11.10;;
63346;SDS011;49472;49.880;8.650;2022-09-09T08:22:36;12.40;;;11.20;;
63346;SDS011;49472;49.880;8.650;2022-09-09T08:25:02;12.63;;;11.40;;
63346;SDS011;49472;49.880;8.650;2022-09-09T08:27:31;11.40;;;10.60;;
63346;SDS011;49472;49.880;8.650;2022-09-09T08:29:57;12.23;;;11.30;;
63346;SDS011;49472;49.880;8.650;2022-09-09T08:32:22;12.60;;;10.73;;
63346;SDS011;49472;49.880;8.650;2022-09-09T08:34:47;12.47;;;10.83;;
63346;SDS011;49472;49.880;8.650;2022-09-09T08:37:14;11.77;;;10.70;;
63346;SDS011;49472;49.880;8.650;2022-09-09T08:39:39;15.90;;;12.07;;
63346;SDS011;49472;49.880;8.650;2022-09-09T08:50:03;12.30;;;10.87;;
63346;SDS011;49472;49.880;8.650;2022-09-09T08:52:36;16.00;;;11.20;;
63346;SDS011;49472;49.880;8.650;2022-09-09T08:55:16;12.87;;;11.70;;
63346;SDS011;49472;49.880;8.650;2022-09-09T08:57:46;12.33;;;11.13;;
63346;SDS011;49472;49.880;8.650;2022-09-09T09:00:11;12.20;;;11.03;;
63346;SDS011;49472;49.880;8.650;2022-09-09T09:12:43;14.85;;;4.35;;
63346;SDS011;49472;49.880;8.650;2022-09-09T09:15:11;24.83;;;4.77;;
63346;SDS011;49472;49.880;8.650;2022-09-09T09:17:39;14.23;;;3.53;;
63346;SDS011;49472;49.880;8.650;2022-09-09T09:20:06;14.53;;;3.63;;
63346;SDS011;49472;49.880;8.650;2022-09-09T09:22:40;10.50;;;3.77;;
63346;SDS011;49472;49.880;8.650;2022-09-09T09:30:26;14.10;;;6.40;;
63346;SDS011;49472;49.880;8.650;2022-09-09T09:32:59;18.90;;;8.73;;
63346;SDS011;49472;49.880;8.650;2022-09-09T09:35:25;19.27;;;10.97;;
63346;SDS011;49472;49.880;8.650;2022-09-09T09:37:50;12.60;;;11.10;;
63346;SDS011;49472;49.880;8.650;2022-09-09T09:40:18;14.77;;;11.87;;
63346;SDS011;49472;49.880;8.650;2022-09-09T09:43:02;13.23;;;11.07;;
63346;SDS011;49472;49.880;8.650;2022-09-09T09:45:42;12.80;;;11.47;;
63346;SDS011;49472;49.880;8.650;2022-09-09T09:48:10;13.57;;;12.23;;
63346;SDS011;49472;49.880;8.650;2022-09-09T09:50:39;13.87;;;12.03;;
63346;SDS011;49472;49.880;8.650;2022-09-09T09:53:33;13.83;;;11.70;;
63346;SDS011;49472;49.880;8.650;2022-09-09T09:55:58;11.87;;;10.93;;
63346;SDS011;49472;49.880;8.650;2022-09-09T09:58:24;15.87;;;12.20;;
63346;SDS011;49472;49.880;8.650;2022-09-09T10:00:50;15.00;;;12.40;;
63346;SDS011;49472;49.880;8.650;2022-09-09T10:05:47;13.23;;;11.13;;
63346;SDS011;49472;49.880;8.650;2022-09-09T10:08:13;13.73;;;12.30;;
63346;SDS011;49472;49.880;8.650;2022-09-09T10:13:19;15.77;;;12.07;;
63346;SDS011;49472;49.880;8.650;2022-09-09T10:15:54;12.20;;;11.10;;
63346;SDS011;49472;49.880;8.650;2022-09-09T10:31:11;15.03;;;12.30;;
63346;SDS011;49472;49.880;8.650;2022-09-09T10:36:23;12.00;;;11.03;;
63346;SDS011;49472;49.880;8.650;2022-09-09T10:38:59;12.13;;;11.13;;
63346;SDS011;49472;49.880;8.650;2022-09-09T10:47:03;8.53;;;2.70;;
63346;SDS011;49472;49.880;8.650;2022-09-09T10:49:50;13.27;;;3.10;;
63346;SDS011;49472;49.880;8.650;2022-09-09T10:54:58;11.40;;;3.53;;
63346;SDS011;49472;49.880;8.650;2022-09-09T10:59:50;10.40;;;3.40;;
63346;SDS011;49472;49.880;8.650;2022-09-09T11:02:24;11.07;;;3.20;;
63346;SDS011;49472;49.880;8.650;2022-09-09T11:04:53;6.83;;;4.00;;
63346;SDS011;49472;49.880;8.650;2022-09-09T11:10:05;8.17;;;3.17;;
63346;SDS011;49472;49.880;8.650;2022-09-09T11:12:32;11.57;;;3.33;;
63346;SDS011;49472;49.880;8.650;2022-09-09T11:15:01;4.13;;;2.23;;
63346;SDS011;49472;49.880;8.650;2022-09-09T11:17:48;12.33;;;4.00;;
63346;SDS011;49472;49.880;8.650;2022-09-09T11:20:15;10.13;;;2.93;;
63346;SDS011;49472;49.880;8.650;2022-09-09T11:22:45;9.37;;;3.23;;
63346;SDS011;49472;49.880;8.650;2022-09-09T11:25:26;7.27;;;3.13;;
63346;SDS011;49472;49.880;8.650;2022-09-09T11:35:33;13.23;;;3.47;;
63346;SDS011;49472;49.880;8.650;2022-09-09T11:40:36;12.40;;;3.07;;
63346;SDS011;49472;49.880;8.650;2022-09-09T11:45:28;5.90;;;2.57;;
63346;SDS011;49472;49.880;8.650;2022-09-09T11:47:54;9.93;;;2.87;;
63346;SDS011;49472;49.880;8.650;2022-09-09T11:52:46;11.37;;;3.63;;
63346;SDS011;49472;49.880;8.650;2022-09-09T11:55:28;11.07;;;2.80;;
63346;SDS011;49472;49.880;8.650;2022-09-09T11:58:02;7.57;;;3.10;;
63346;SDS011;49472;49.880;8.650;2022-09-09T12:00:49;17.03;;;4.17;;
63346;SDS011;49472;49.880;8.650;2022-09-09T12:05:59;9.10;;;2.77;;
63346;SDS011;49472;49.880;8.650;2022-09-09T12:08:28;8.60;;;2.80;;
63346;SDS011;49472;49.880;8.650;2022-09-09T12:10:56;9.83;;;3.70;;
63346;SDS011;49472;49.880;8.650;2022-09-09T12:13:22;5.97;;;3.97;;
63346;SDS011;49472;49.880;8.650;2022-09-09T12:15:55;15.83;;;5.80;;
63346;SDS011;49472;49.880;8.650;2022-09-09T12:20:54;21.80;;;11.40;;
63346;SDS011;49472;49.880;8.650;2022-09-09T12:31:10;14.43;;;11.93;;
63346;SDS011;49472;49.880;8.650;2022-09-09T12:33:42;13.50;;;11.53;;
63346;SDS011;49472;49.880;8.650;2022-09-09T12:36:11;12.50;;;11.30;;
63346;SDS011;49472;49.880;8.650;2022-09-09T12:38:39;12.80;;;11.60;;
63346;SDS011;49472;49.880;8.650;2022-09-09T12:41:04;13.07;;;11.87;;
63346;SDS011;49472;49.880;8.650;2022-09-09T12:43:30;12.50;;;11.27;;
63346;SDS011;49472;49.880;8.650;2022-09-09T12:45:59;11.87;;;10.97;;
63346;SDS011;49472;49.880;8.650;2022-09-09T12:48:28;13.57;;;12.03;;
63346;SDS011;49472;49.880;8.650;2022-09-09T12:50:55;20.93;;;11.63;;
63346;SDS011;49472;49.880;8.650;2022-09-09T12:53:29;12.17;;;11.27;;
63346;SDS011;49472;49.880;8.650;2022-09-09T12:56:37;12.40;;;11.20;;
63346;SDS011;49472;49.880;8.650;2022-09-09T12:58:44;10.63;;;9.83;;
63346;SDS011;49472;49.880;8.650;2022-09-09T13:01:17;12.40;;;11.50;;
63346;SDS011;49472;49.880;8.650;2022-09-09T13:03:43;12.77;;;11.80;;
63346;SDS011;49472;49.880;8.650;2022-09-09T13:06:11;16.87;;;12.33;;
63346;SDS011;49472;49.880;8.650;2022-09-09T13:08:37;12.43;;;11.63;;
63346;SDS011;49472;49.880;8.650;2022-09-09T13:11:04;13.10;;;11.47;;
63346;SDS011;49472;49.880;8.650;2022-09-09T13:15:58;12.63;;;11.73;;
63346;SDS011;49472;49.880;8.650;2022-09-09T13:18:27;13.00;;;11.67;;
63346;SDS011;49472;49.880;8.650;2022-09-09T13:20:53;12.50;;;11.37;;
63346;SDS011;49472;49.880;8.650;2022-09-09T13:23:19;12.70;;;11.57;;
63346;SDS011;49472;49.880;8.650;2022-09-09T13:26:53;12.50;;;11.50;;
63346;SDS011;49472;49.880;8.650;2022-09-09T13:28:39;12.80;;;11.80;;
63346;SDS011;49472;49.880;8.650;2022-09-09T13:31:05;12.47;;;11.67;;
63346;SDS011;49472;49.880;8.650;2022-09-09T13:36:05;11.90;;;11.07;;
63346;SDS011;49472;49.880;8.650;2022-09-09T13:38:32;12.90;;;12.00;;
63346;SDS011;49472;49.880;8.650;2022-09-09T13:40:59;11.87;;;11.07;;
63346;SDS011;49472;49.880;8.650;2022-09-09T13:43:26;11.73;;;11.03;;
63346;SDS011;49472;49.880;8.650;2022-09-09T13:45:56;12.23;;;11.40;;
63346;SDS011;49472;49.880;8.650;2022-09-09T13:48:22;12.53;;;11.73;;
63346;SDS011;49472;49.880;8.650;2022-09-09T13:50:54;11.03;;;10.23;;
63346;SDS011;49472;49.880;8.650;2022-09-09T13:53:20;10.40;;;9.80;;
63346;SDS011;49472;49.880;8.650;2022-09-09T13:55:45;11.57;;;10.50;;
63346;SDS011;49472;49.880;8.650;2022-09-09T13:58:14;10.67;;;9.77;;
63346;SDS011;49472;49.880;8.650;2022-09-09T14:00:40;12.27;;;11.00;;
63346;SDS011;49472;49.880;8.650;2022-09-09T14:03:05;11.73;;;11.00;;
63346;SDS011;49472;49.880;8.650;2022-09-09T14:05:32;11.33;;;10.53;;
63346;SDS011;49472;49.880;8.650;2022-09-09T14:07:58;12.37;;;11.20;;
63346;SDS011;49472;49.880;8.650;2022-09-09T14:10:25;11.50;;;10.70;;
63346;SDS011;49472;49.880;8.650;2022-09-09T14:12:50;11.30;;;10.60;;
63346;SDS011;49472;49.880;8.650;2022-09-09T14:15:16;11.13;;;10.33;;
63346;SDS011;49472;49.880;8.650;2022-09-09T14:17:41;11.23;;;10.27;;
63346;SDS011;49472;49.880;8.650;2022-09-09T14:20:06;10.70;;;10.00;;
63346;SDS011;49472;49.880;8.650;2022-09-09T14:22:34;10.70;;;10.00;;
63346;SDS011;49472;49.880;8.650;2022-09-09T14:24:59;10.30;;;9.70;;
63346;SDS011;49472;49.880;8.650;2022-09-09T14:27:24;11.53;;;10.43;;
63346;SDS011;49472;49.880;8.650;2022-09-09T14:29:51;11.13;;;10.23;;
63346;SDS011;49472;49.880;8.650;2022-09-09T14:32:16;12.03;;;10.83;;
63346;SDS011;49472;49.880;8.650;2022-09-09T14:34:42;10.50;;;10.00;;
63346;SDS011;49472;49.880;8.650;2022-09-09T14:37:07;11.20;;;10.40;;
63346;SDS011;49472;49.880;8.650;2022-09-09T14:39:32;11.20;;;10.03;;
63346;SDS011;49472;49.880;8.650;2022-09-09T14:41:57;14.33;;;10.97;;
63346;SDS011;49472;49.880;8.650;2022-09-09T14:44:23;11.33;;;10.43;;
63346;SDS011;49472;49.880;8.650;2022-09-09T14:46:48;11.00;;;10.10;;
63346;SDS011;49472;49.880;8.650;2022-09-09T14:49:15;11.47;;;10.57;;
63346;SDS011;49472;49.880;8.650;2022-09-09T14:51:40;11.03;;;10.23;;
63346;SDS011;49472;49.880;8.650;2022-09-09T14:54:05;10.90;;;10.20;;
63346;SDS011;49472;49.880;8.650;2022-09-09T14:56:32;14.10;;;10.90;;
63346;SDS011;49472;49.880;8.650;2022-09-09T14:58:59;10.77;;;10.17;;
63346;SDS011;49472;49.880;8.650;2022-09-09T15:01:25;11.43;;;10.63;;
63346;SDS011;49472;49.880;8.650;2022-09-09T15:04:02;11.13;;;10.33;;
63346;SDS011;49472;49.880;8.650;2022-09-09T15:06:29;11.10;;;10.40;;
63346;SDS011;49472;49.880;8.650;2022-09-09T15:08:55;10.83;;;10.13;;
63346;SDS011;49472;49.880;8.650;2022-09-09T15:11:22;11.77;;;10.80;;
63346;SDS011;49472;49.880;8.650;2022-09-09T15:13:50;12.93;;;10.73;;
63346;SDS011;49472;49.880;8.650;2022-09-09T15:16:17;13.27;;;12.37;;
63346;SDS011;49472;49.880;8.650;2022-09-09T15:18:43;11.67;;;10.93;;
63346;SDS011;49472;49.880;8.650;2022-09-09T15:21:13;11.73;;;10.67;;
63346;SDS011;49472;49.880;8.650;2022-09-09T15:23:39;12.07;;;11.17;;
63346;SDS011;49472;49.880;8.650;2022-09-09T15:26:05;11.30;;;10.70;;
63346;SDS011;49472;49.880;8.650;2022-09-09T15:28:31;13.13;;;11.83;;
63346;SDS011;49472;49.880;8.650;2022-09-09T15:30:57;11.53;;;10.73;;
63346;SDS011;49472;49.880;8.650;2022-09-09T15:33:23;11.80;;;10.60;;
63346;SDS011;49472;49.880;8.650;2022-09-09T15:35:48;12.87;;;10.87;;
63346;SDS011;49472;49.880;8.650;2022-09-09T15:38:14;14.03;;;10.63;;
63346;SDS011;49472;49.880;8.650;2022-09-09T15:40:41;11.40;;;10.57;;
63346;SDS011;49472;49.880;8.650;2022-09-09T15:43:06;12.10;;;11.13;;
63346;SDS011;49472;49.880;8.650;2022-09-09T15:45:32;11.37;;;10.40;;
63346;SDS011;49472;49.880;8.650;2022-09-09T15:47:58;11.60;;;10.70;;
63346;SDS011;49472;49.880;8.650;2022-09-09T15:50:23;10.83;;;9.67;;
63346;SDS011;49472;49.880;8.650;2022-09-09T15:52:48;10.60;;;10.00;;
63346;SDS011;49472;49.880;8.650;2022-09-09T15:55:13;10.93;;;10.20;;
63346;SDS011;49472;49.880;8.650;2022-09-09T15:57:39;10.53;;;10.03;;
63346;SDS011;49472;49.880;8.650;2022-09-09T16:00:04;11.98;;;10.77;;
63346;SDS011;49472;49.880;8.650;2022-09-09T16:02:30;11.63;;;10.80;;
63346;SDS011;49472;49.880;8.650;2022-09-09T16:04:56;13.35;;;10.27;;
63346;SDS011;49472;49.880;8.650;2022-09-09T16:07:22;10.98;;;10.30;;
63346;SDS011;49472;49.880;8.650;2022-09-09T16:09:47;11.40;;;10.55;;
63346;SDS011;49472;49.880;8.650;2022-09-09T16:12:12;11.83;;;10.93;;
63346;SDS011;49472;49.880;8.650;2022-09-09T16:14:39;11.20;;;10.27;;
63346;SDS011;49472;49.880;8.650;2022-09-09T16:17:05;11.30;;;10.43;;
63346;SDS011;49472;49.880;8.650;2022-09-09T16:19:31;11.30;;;10.53;;
63346;SDS011;49472;49.880;8.650;2022-09-09T16:21:56;10.97;;;10.33;;
63346;SDS011;49472;49.880;8.650;2022-09-09T16:24:22;11.00;;;10.13;;
63346;SDS011;49472;49.880;8.650;2022-09-09T16:26:49;12.10;;;11.17;;
63346;SDS011;49472;49.880;8.650;2022-09-09T16:29:15;11.23;;;10.70;;
63346;SDS011;49472;49.880;8.650;2022-09-09T16:31:41;12.03;;;11.23;;